createdAt,value
2018-06-17T00:01:01.608Z,95669.00
2018-06-17T00:06:32.012Z,95669.00
2018-06-17T00:12:01.530Z,95660.00
2018-06-17T00:17:31.238Z,95661.00
2018-06-17T00:23:01.819Z,95659.00
2018-06-17T00:28:31.764Z,95664.00
2018-06-17T00:34:01.748Z,95660.00
2018-06-17T00:39:31.435Z,95659.00
2018-06-17T00:45:02.542Z,95653.00
2018-06-17T00:50:32.939Z,95651.00
2018-06-17T00:56:03.117Z,95649.00
2018-06-17T01:01:33.115Z,95656.00
2018-06-17T01:07:02.917Z,95655.00
2018-06-17T01:12:32.561Z,95654.00
2018-06-17T01:18:02.860Z,95657.00
2018-06-17T01:23:32.817Z,95665.00
2018-06-17T01:29:02.652Z,95655.00
2018-06-17T01:34:32.743Z,95659.00
2018-06-17T01:40:02.852Z,95656.00
2018-06-17T01:45:32.859Z,95653.00
2018-06-17T01:51:02.612Z,95652.00
2018-06-17T01:56:33.099Z,95647.00
2018-06-17T02:02:02.561Z,95644.00
2018-06-17T02:08:39.455Z,95643.00
2018-06-17T02:14:14.249Z,95649.00
2018-06-17T02:19:43.448Z,95638.00
2018-06-17T02:25:12.639Z,95641.00
2018-06-17T02:30:41.833Z,95640.00
2018-06-17T02:36:11.570Z,95640.00
2018-06-17T02:41:40.828Z,95642.00
2018-06-17T02:47:15.888Z,95642.00
2018-06-17T02:52:50.584Z,95652.00
2018-06-17T02:58:19.741Z,95651.00
2018-06-17T03:03:48.940Z,95649.00
2018-06-17T03:09:18.120Z,95648.00
2018-06-17T03:14:47.302Z,95653.00
2018-06-17T03:20:16.505Z,95663.00
2018-06-17T03:25:51.107Z,95657.00
2018-06-17T03:31:20.917Z,95665.00
2018-06-17T03:36:49.846Z,95657.00
2018-06-17T03:42:19.024Z,95668.00
2018-06-17T03:47:48.288Z,95671.00
2018-06-17T03:53:17.506Z,95667.00
2018-06-17T03:58:46.692Z,95670.00
2018-06-17T04:04:15.886Z,95680.00
2018-06-17T04:09:45.109Z,95677.00
2018-06-17T04:15:14.453Z,95677.00
2018-06-17T04:20:43.735Z,95680.00
2018-06-17T04:26:13.179Z,95693.00
2018-06-17T04:31:42.373Z,95683.00
2018-06-17T04:37:11.702Z,95694.00
2018-06-17T04:42:40.892Z,95690.00
2018-06-17T04:48:10.330Z,95699.00
2018-06-17T04:53:39.690Z,95701.00
2018-06-17T04:59:09.136Z,95705.00
2018-06-17T05:04:38.962Z,95716.00
2018-06-17T05:10:08.655Z,95717.00
2018-06-17T05:15:39.015Z,95722.00
2018-06-17T05:21:08.184Z,95727.00
2018-06-17T05:26:38.411Z,95729.00
2018-06-17T05:32:08.052Z,95731.00
2018-06-17T05:37:37.668Z,95734.00
2018-06-17T05:43:08.031Z,95741.00
2018-06-17T05:48:38.732Z,95739.00
2018-06-17T05:54:08.889Z,95743.00
2018-06-17T05:59:41.443Z,95739.00
2018-06-17T06:05:10.641Z,95738.00
2018-06-17T06:10:40.083Z,95739.00
2018-06-17T06:16:09.355Z,95743.00
2018-06-17T06:21:38.532Z,95731.00
2018-06-17T06:27:09.387Z,95742.00
2018-06-17T06:32:41.955Z,95740.00
2018-06-17T06:38:13.526Z,95749.00
2018-06-17T06:43:43.628Z,95753.00
2018-06-17T06:49:13.183Z,95761.00
2018-06-17T06:54:43.834Z,95768.00
2018-06-17T07:00:13.910Z,95767.00
2018-06-17T07:06:00.070Z,95759.00
2018-06-17T07:11:29.250Z,95773.00
2018-06-17T07:17:16.145Z,95777.00
2018-06-17T07:22:45.903Z,95770.00
2018-06-17T07:30:23.255Z,95784.00
2018-06-17T07:35:52.627Z,95781.00
2018-06-17T07:41:22.153Z,95774.00
2018-06-17T07:46:51.840Z,95779.00
2018-06-17T07:52:38.776Z,95783.00
2018-06-17T07:58:12.497Z,95777.00
2018-06-17T08:03:42.792Z,95788.00
2018-06-17T08:09:14.755Z,95789.00
2018-06-17T08:14:44.241Z,95793.00
2018-06-17T08:20:14.213Z,95791.00
2018-06-17T08:25:44.418Z,95792.00
2018-06-17T08:31:14.729Z,95789.00
2018-06-17T08:36:44.145Z,95801.00
2018-06-17T08:42:14.395Z,95802.00
2018-06-17T08:47:45.298Z,95801.00
2018-06-17T08:53:14.901Z,95811.00
2018-06-17T08:58:44.933Z,95815.00
2018-06-17T09:04:14.934Z,95814.00
2018-06-17T09:09:44.341Z,95821.00
2018-06-17T09:15:14.797Z,95815.00
2018-06-17T09:20:44.016Z,95818.00
2018-06-17T09:26:13.226Z,95808.00
2018-06-17T09:31:43.633Z,95811.00
2018-06-17T09:37:14.879Z,95796.00
2018-06-17T09:42:45.124Z,95807.00
2018-06-17T09:48:14.574Z,95806.00
2018-06-17T09:53:45.263Z,95799.00
2018-06-17T09:59:15.760Z,95802.00
2018-06-17T10:04:45.335Z,95803.00
2018-06-17T10:11:06.168Z,95798.00
2018-06-17T10:16:35.352Z,95805.00
2018-06-17T10:22:04.731Z,95809.00
2018-06-17T10:27:33.957Z,95807.00
2018-06-17T10:33:03.200Z,95811.00
2018-06-17T10:38:32.423Z,95805.00
2018-06-17T10:44:01.675Z,95810.00
2018-06-17T10:49:30.881Z,95798.00
2018-06-17T10:55:00.146Z,95823.00
2018-06-17T11:00:29.359Z,95823.00
2018-06-17T11:05:58.579Z,95824.00
2018-06-17T11:11:27.809Z,95832.00
2018-06-17T11:16:56.995Z,95830.00
2018-06-17T11:22:26.151Z,95827.00
2018-06-17T11:27:55.346Z,95820.00
2018-06-17T11:33:24.613Z,95829.00
2018-06-17T11:38:54.478Z,95819.00
2018-06-17T11:44:23.640Z,95822.00
2018-06-17T11:49:53.013Z,95826.00
2018-06-17T11:55:22.971Z,95825.00
2018-06-17T12:00:52.335Z,95836.00
2018-06-17T12:06:21.588Z,95836.00
2018-06-17T12:11:50.797Z,95834.00
2018-06-17T12:17:19.953Z,95826.00
2018-06-17T12:22:49.153Z,95814.00
2018-06-17T12:28:18.486Z,95815.00
2018-06-17T12:33:48.204Z,95809.00
2018-06-17T12:39:17.705Z,95800.00
2018-06-17T12:44:47.535Z,95798.00
2018-06-17T12:50:18.387Z,95803.00
2018-06-17T12:55:48.068Z,95803.00
2018-06-17T13:01:17.632Z,95801.00
2018-06-17T13:06:47.336Z,95794.00
2018-06-17T13:12:18.271Z,95781.00
2018-06-17T13:17:48.946Z,95778.00
2018-06-17T13:23:18.842Z,95774.00
2018-06-17T13:28:49.041Z,95765.00
2018-06-17T13:34:19.199Z,95764.00
2018-06-17T13:39:50.153Z,95765.00
2018-06-17T13:45:20.747Z,95760.00
2018-06-17T13:50:50.810Z,95755.00
2018-06-17T13:56:20.787Z,95771.00
2018-06-17T14:01:50.443Z,95764.00
2018-06-17T14:07:20.099Z,95754.00
2018-06-17T14:12:49.296Z,95750.00
2018-06-17T14:18:18.639Z,95753.00
2018-06-17T14:23:48.296Z,95759.00
2018-06-17T14:29:17.795Z,95761.00
2018-06-17T14:34:47.754Z,95756.00
2018-06-17T14:40:17.837Z,95750.00
2018-06-17T14:45:52.656Z,95760.00
2018-06-17T14:51:27.473Z,95749.00
2018-06-17T14:56:56.666Z,95752.00
2018-06-17T15:02:25.905Z,95735.00
2018-06-17T15:07:55.361Z,95715.00
2018-06-17T15:13:24.649Z,95699.00
2018-06-17T15:18:54.256Z,95709.00
2018-06-17T15:24:23.672Z,95751.00
2018-06-17T15:29:53.859Z,95749.00
2018-06-17T15:35:28.244Z,95734.00
2018-06-17T15:41:02.799Z,95749.00
2018-06-17T15:46:32.215Z,95744.00
2018-06-17T15:52:01.411Z,95750.00
2018-06-17T15:57:30.649Z,95746.00
2018-06-17T16:02:59.623Z,95760.00
2018-06-17T16:08:28.824Z,95753.00
2018-06-17T16:15:01.972Z,95752.00
2018-06-17T16:20:36.586Z,95759.00
2018-06-17T16:26:05.848Z,95752.00
2018-06-17T16:31:35.120Z,95766.00
2018-06-17T16:37:04.337Z,95766.00
2018-06-17T16:42:33.545Z,95766.00
2018-06-17T16:48:03.059Z,95771.00
2018-06-17T16:53:37.725Z,95775.00
2018-06-17T16:59:12.855Z,95778.00
2018-06-17T17:04:44.704Z,95778.00
2018-06-17T17:10:15.692Z,95779.00
2018-06-17T17:15:46.957Z,95791.00
2018-06-17T17:21:17.048Z,95799.00
2018-06-17T17:26:46.567Z,95818.00
2018-06-17T17:32:21.588Z,95830.00
2018-06-17T17:37:56.488Z,95836.00
2018-06-17T17:43:25.665Z,95846.00
2018-06-17T17:48:55.025Z,95853.00
2018-06-17T17:54:24.259Z,95858.00
2018-06-17T17:59:53.432Z,95864.00
2018-06-17T18:05:22.734Z,95870.00
2018-06-17T18:10:52.422Z,95868.00
2018-06-17T18:16:21.935Z,95872.00
2018-06-17T18:21:51.224Z,95873.00
2018-06-17T18:27:25.805Z,95872.00
2018-06-17T18:34:00.050Z,95885.00
2018-06-17T18:39:29.281Z,95903.00
2018-06-17T18:44:58.545Z,95924.00
2018-06-17T18:50:27.760Z,95942.00
2018-06-17T18:55:56.967Z,95949.00
2018-06-17T19:01:26.315Z,95973.00
2018-06-17T19:06:55.616Z,95970.00
2018-06-17T19:12:30.243Z,95994.00
2018-06-17T19:18:12.409Z,96007.00
2018-06-17T19:23:44.041Z,96012.00
2018-06-17T19:29:13.992Z,96014.00
2018-06-17T19:34:45.609Z,96019.00
2018-06-17T19:40:17.849Z,96022.00
2018-06-17T19:45:47.569Z,96033.00
2018-06-17T19:51:22.277Z,96032.00
2018-06-17T19:56:57.342Z,96032.00
2018-06-17T20:02:26.801Z,96034.00
2018-06-17T20:07:56.015Z,96033.00
2018-06-17T20:13:25.750Z,96038.00
2018-06-17T20:18:55.467Z,96039.00
2018-06-17T20:24:25.101Z,96048.00
2018-06-17T20:29:54.433Z,96042.00
2018-06-17T20:35:29.578Z,96047.00
2018-06-17T20:41:05.442Z,96056.00
2018-06-17T20:46:34.737Z,96060.00
2018-06-17T20:52:04.055Z,96058.00
2018-06-17T20:57:33.316Z,96067.00
2018-06-17T21:03:02.562Z,96074.00
2018-06-17T21:08:31.903Z,96073.00
2018-06-17T21:14:01.143Z,96079.00
2018-06-17T21:19:35.707Z,96094.00
2018-06-17T21:25:10.411Z,96088.00
2018-06-17T21:30:41.161Z,96083.00
2018-06-17T21:36:11.610Z,96093.00
2018-06-17T21:41:43.291Z,96089.00
2018-06-17T21:47:14.247Z,96093.00
2018-06-17T21:52:44.453Z,96088.00
2018-06-17T21:58:19.250Z,96091.00
2018-06-17T22:03:49.017Z,96096.00
2018-06-17T22:09:23.852Z,96097.00
2018-06-17T22:14:58.512Z,96096.00
2018-06-17T22:20:27.872Z,96097.00
2018-06-17T22:25:57.345Z,96096.00
2018-06-17T22:31:26.755Z,96100.00
2018-06-17T22:36:56.302Z,96104.00
2018-06-17T22:42:26.017Z,96104.00
2018-06-17T22:47:59.405Z,96113.00
2018-06-17T22:55:43.076Z,96098.00
2018-06-17T23:01:21.182Z,96101.00
2018-06-17T23:06:55.864Z,96097.00
2018-06-17T23:12:25.417Z,96111.00
2018-06-17T23:17:54.948Z,96105.00
2018-06-17T23:23:24.373Z,96102.00
2018-06-17T23:28:53.984Z,96108.00
2018-06-17T23:34:23.591Z,96110.00
2018-06-17T23:39:53.172Z,96114.00
2018-06-17T23:45:22.811Z,96113.00
2018-06-17T23:50:57.471Z,96117.00
2018-06-17T23:56:32.961Z,96114.00
